Jacobsburg, Ohio
Current Conditions -  °F | °C
As of 8:53 PM on Friday 31 Oct 2014 (Local Time) from KHLG Reporting Station
Light Rain Light Rain  
Wind Chill: 41°   Ceiling: 1000
Heat Index: 41°   Visibility: 4mi
Dew Point: 40°   Wind: 3mph
Humidity: 96%   Direction: 90°E
Pressure: 29.88"   Gusts: NA
Location:  39.97°N, 80.9°W
Report Text: KHLG 010053Z 09003KT 4SM -RA BR SCT005 BKN010 OVC021 05/04 A2988 RMK AO2 SLP126 P0005 T00500044
Loading
Personal Weather Stations






























Interactive Weather Map
Tropical Storm Tracking
New forecast layout! Learn more

10-Day Weather Forecast

Advertisements
Track Severe Weather on mobile